createdAt,value
2022-12-03T00:00:58.758Z,8.40
2022-12-03T00:01:50.500Z,8.80
2022-12-03T00:02:41.910Z,9.20
2022-12-03T00:03:35.999Z,8.20
2022-12-03T00:04:27.497Z,8.50
2022-12-03T00:05:18.761Z,8.30
2022-12-03T00:06:09.959Z,8.10
2022-12-03T00:07:01.369Z,8.50
2022-12-03T00:07:52.933Z,8.20
2022-12-03T00:08:44.173Z,10.20
2022-12-03T00:09:35.354Z,8.20
2022-12-03T00:10:26.984Z,9.00
2022-12-03T00:11:18.387Z,8.80
2022-12-03T00:12:09.658Z,9.30
2022-12-03T00:13:01.224Z,8.30
2022-12-03T00:13:52.650Z,7.90
2022-12-03T00:14:45.000Z,8.70
2022-12-03T00:15:36.490Z,7.90
2022-12-03T00:16:27.892Z,8.40
2022-12-03T00:17:19.237Z,9.80
2022-12-03T00:18:10.852Z,9.50
2022-12-03T00:19:02.209Z,10.80
2022-12-03T00:19:54.028Z,9.40
2022-12-03T00:20:45.579Z,8.60
2022-12-03T00:21:37.218Z,10.10
2022-12-03T00:22:28.251Z,9.10
2022-12-03T00:23:19.865Z,9.10
2022-12-03T00:24:11.596Z,9.30
2022-12-03T00:25:03.677Z,10.30
2022-12-03T00:25:55.038Z,9.10
2022-12-03T00:26:46.541Z,10.00
2022-12-03T00:27:37.943Z,8.70
2022-12-03T00:29:21.015Z,9.60
2022-12-03T00:30:13.353Z,10.10
2022-12-03T00:31:06.221Z,9.20
2022-12-03T00:31:57.806Z,9.60
2022-12-03T00:33:40.600Z,8.60
2022-12-03T00:34:32.232Z,10.10
2022-12-03T00:35:23.922Z,10.40
2022-12-03T00:36:15.176Z,7.70
2022-12-03T00:37:06.642Z,11.30
2022-12-03T00:37:58.916Z,10.10
2022-12-03T00:38:50.320Z,8.90
2022-12-03T00:39:41.852Z,10.90
2022-12-03T00:40:33.636Z,10.30
2022-12-03T00:41:24.836Z,10.90
2022-12-03T00:42:16.229Z,9.70
2022-12-03T00:43:07.812Z,11.50
2022-12-03T00:43:59.317Z,11.30
2022-12-03T00:44:51.187Z,9.90
2022-12-03T00:45:42.764Z,12.00
2022-12-03T00:46:34.302Z,11.20
2022-12-03T00:47:25.661Z,10.40
2022-12-03T00:48:17.414Z,9.90
2022-12-03T00:49:08.719Z,10.60
2022-12-03T00:50:00.248Z,9.90
2022-12-03T00:50:51.728Z,10.10
2022-12-03T00:51:43.245Z,10.10
2022-12-03T00:52:34.529Z,10.50
2022-12-03T00:53:25.814Z,9.30
2022-12-03T00:54:17.064Z,9.60
2022-12-03T00:55:08.798Z,10.90
2022-12-03T00:56:01.703Z,13.40
2022-12-03T00:56:53.226Z,9.70
2022-12-03T00:57:44.829Z,10.40
2022-12-03T00:58:36.411Z,10.60
2022-12-03T00:59:27.972Z,12.30
2022-12-03T01:00:24.554Z,11.20
2022-12-03T01:01:15.916Z,10.60
2022-12-03T01:02:07.484Z,12.30
2022-12-03T01:02:58.870Z,10.50
2022-12-03T01:03:50.353Z,11.70
2022-12-03T01:04:42.058Z,11.80
2022-12-03T01:05:33.566Z,10.80
2022-12-03T01:06:24.764Z,11.90
2022-12-03T01:07:16.072Z,13.10
2022-12-03T01:08:07.480Z,12.60
2022-12-03T01:08:58.911Z,10.60
2022-12-03T01:09:50.309Z,12.70
2022-12-03T01:11:39.246Z,10.60
2022-12-03T01:12:31.040Z,13.70
2022-12-03T01:13:22.632Z,12.10
2022-12-03T01:14:15.809Z,14.80
2022-12-03T01:15:07.792Z,13.20
2022-12-03T01:15:59.273Z,12.00
2022-12-03T01:16:50.719Z,11.70
2022-12-03T01:17:42.220Z,12.40
2022-12-03T01:18:33.738Z,14.10
2022-12-03T01:19:25.614Z,12.00
2022-12-03T01:20:17.012Z,11.70
2022-12-03T01:21:08.330Z,14.20
2022-12-03T01:21:59.908Z,12.40
2022-12-03T01:22:51.284Z,12.70
2022-12-03T01:23:42.718Z,14.00
2022-12-03T01:24:34.316Z,14.20
2022-12-03T01:25:25.933Z,12.30
2022-12-03T01:26:17.371Z,14.10
2022-12-03T01:27:08.737Z,13.20
2022-12-03T01:28:00.292Z,12.50
2022-12-03T01:28:52.352Z,13.20
2022-12-03T01:29:43.925Z,13.00
2022-12-03T01:30:55.221Z,12.30
2022-12-03T01:32:05.612Z,12.30
2022-12-03T01:32:57.014Z,11.60
2022-12-03T01:33:48.567Z,12.20
2022-12-03T01:34:39.967Z,13.30
2022-12-03T01:35:31.157Z,11.30
2022-12-03T01:36:22.789Z,13.50
2022-12-03T01:38:05.922Z,13.00
2022-12-03T01:38:57.596Z,12.90
2022-12-03T01:39:49.677Z,12.30
2022-12-03T01:40:41.360Z,13.70
2022-12-03T01:41:33.490Z,12.90
2022-12-03T01:42:39.753Z,14.20
2022-12-03T01:43:31.362Z,13.80
2022-12-03T01:44:24.295Z,12.90
2022-12-03T01:45:21.431Z,15.10
2022-12-03T01:46:21.091Z,14.10
2022-12-03T01:47:16.991Z,12.80
2022-12-03T01:48:10.198Z,11.00
2022-12-03T01:49:01.455Z,11.00
2022-12-03T01:49:54.189Z,12.30
2022-12-03T01:50:45.937Z,13.40
2022-12-03T01:51:37.490Z,13.30
2022-12-03T01:52:31.037Z,13.90
2022-12-03T01:53:22.726Z,11.40
2022-12-03T01:54:17.043Z,6.60
2022-12-03T01:55:13.248Z,12.20
2022-12-03T01:56:04.526Z,12.30
2022-12-03T01:56:56.023Z,14.40
2022-12-03T01:57:49.786Z,11.10
2022-12-03T01:58:41.984Z,12.10
2022-12-03T01:59:35.635Z,11.70
2022-12-03T02:00:27.865Z,10.80
2022-12-03T02:01:19.674Z,12.70
2022-12-03T02:02:12.818Z,11.60
2022-12-03T02:03:11.513Z,13.80
2022-12-03T02:04:03.082Z,11.70
2022-12-03T02:04:55.138Z,11.20
2022-12-03T02:05:47.018Z,12.30
2022-12-03T02:06:38.783Z,11.30
2022-12-03T02:07:31.524Z,12.20
2022-12-03T02:08:33.668Z,12.40
2022-12-03T02:09:25.198Z,10.80
2022-12-03T02:10:18.870Z,10.40
2022-12-03T02:11:21.321Z,10.30
2022-12-03T02:12:13.358Z,10.50
2022-12-03T02:13:06.408Z,10.10
2022-12-03T02:14:01.284Z,10.50
2022-12-03T02:14:53.663Z,9.00
2022-12-03T02:15:45.748Z,9.70
2022-12-03T02:16:37.802Z,11.20
2022-12-03T02:17:29.244Z,11.10
2022-12-03T02:18:20.776Z,10.80
2022-12-03T02:20:05.195Z,10.20
2022-12-03T02:20:59.391Z,9.00
2022-12-03T02:21:59.944Z,11.40
2022-12-03T02:22:54.325Z,10.80
2022-12-03T02:24:00.507Z,10.00
2022-12-03T02:24:57.230Z,10.00
2022-12-03T02:25:48.804Z,9.30
2022-12-03T02:26:40.258Z,10.30
2022-12-03T02:27:31.858Z,10.50
2022-12-03T02:28:23.458Z,11.40
2022-12-03T02:29:14.758Z,10.90
2022-12-03T02:30:07.573Z,12.60
2022-12-03T02:30:59.187Z,11.00
2022-12-03T02:31:50.462Z,11.10
2022-12-03T02:32:43.128Z,10.20
2022-12-03T02:33:34.919Z,12.10
2022-12-03T02:34:37.148Z,11.30
2022-12-03T02:35:30.365Z,9.80
2022-12-03T02:36:22.181Z,9.00
2022-12-03T02:37:15.478Z,9.90
2022-12-03T02:38:21.428Z,8.80
2022-12-03T02:39:12.823Z,10.20
2022-12-03T02:40:06.662Z,12.50
2022-12-03T02:41:01.249Z,9.50
2022-12-03T02:42:11.396Z,11.70
2022-12-03T02:43:03.302Z,11.30
2022-12-03T02:43:54.989Z,9.40
2022-12-03T02:44:46.692Z,9.70
2022-12-03T02:45:41.233Z,10.70
2022-12-03T02:46:33.489Z,11.70
2022-12-03T02:47:25.018Z,9.40
2022-12-03T02:48:19.048Z,10.40
2022-12-03T02:49:10.869Z,11.80
2022-12-03T02:50:55.805Z,9.60
2022-12-03T02:51:47.222Z,10.40
2022-12-03T02:52:38.983Z,8.20
2022-12-03T02:53:36.390Z,10.30
2022-12-03T02:54:27.754Z,9.90
2022-12-03T02:55:19.371Z,10.60
2022-12-03T02:56:13.542Z,10.40
2022-12-03T02:57:05.681Z,9.50
2022-12-03T02:57:57.159Z,10.30
2022-12-03T02:58:49.556Z,11.60
2022-12-03T02:59:40.846Z,10.80
2022-12-03T03:00:33.019Z,10.10
2022-12-03T03:01:24.526Z,8.90
2022-12-03T03:02:15.796Z,9.70
2022-12-03T03:03:59.289Z,7.90
2022-12-03T03:04:50.867Z,9.20
2022-12-03T03:05:42.649Z,10.60
2022-12-03T03:06:34.573Z,11.60
2022-12-03T03:07:27.039Z,9.60
2022-12-03T03:08:18.765Z,10.90
2022-12-03T03:10:02.234Z,9.20
2022-12-03T03:10:54.088Z,10.80
2022-12-03T03:11:45.993Z,9.80
2022-12-03T03:12:39.391Z,10.80
2022-12-03T03:13:32.309Z,10.40
2022-12-03T03:14:23.966Z,9.40
2022-12-03T03:15:15.925Z,9.90
2022-12-03T03:16:08.046Z,9.90
2022-12-03T03:16:59.574Z,9.70
2022-12-03T03:17:51.597Z,8.50
2022-12-03T03:18:43.248Z,9.20
2022-12-03T03:20:26.488Z,8.90
2022-12-03T03:21:18.957Z,9.00
2022-12-03T03:22:11.460Z,9.50
2022-12-03T03:23:11.787Z,9.70
2022-12-03T03:24:04.174Z,8.00
2022-12-03T03:24:55.728Z,9.50
2022-12-03T03:25:49.426Z,9.30
2022-12-03T03:26:41.478Z,9.00
2022-12-03T03:27:33.890Z,9.80
2022-12-03T03:28:26.684Z,9.60
2022-12-03T03:29:18.219Z,9.10
2022-12-03T03:30:09.819Z,9.30
2022-12-03T03:31:02.607Z,9.50
2022-12-03T03:31:55.015Z,9.70
2022-12-03T03:32:46.370Z,9.10
2022-12-03T03:33:39.316Z,9.80
2022-12-03T03:34:32.553Z,10.60
2022-12-03T03:35:24.388Z,7.70
2022-12-03T03:37:06.989Z,7.50
2022-12-03T03:37:58.824Z,8.30
2022-12-03T03:38:50.613Z,7.80
2022-12-03T03:39:41.837Z,7.20
2022-12-03T03:40:33.087Z,8.10
2022-12-03T03:41:25.654Z,7.50
2022-12-03T03:42:17.057Z,7.60
2022-12-03T03:43:08.612Z,8.50
2022-12-03T03:44:00.221Z,10.80
2022-12-03T03:44:52.327Z,7.40
2022-12-03T03:45:44.498Z,7.00
2022-12-03T03:46:37.254Z,7.40
2022-12-03T03:47:28.907Z,8.30
2022-12-03T03:48:20.296Z,7.70
2022-12-03T03:49:12.005Z,7.20
2022-12-03T03:50:04.103Z,6.70
2022-12-03T03:52:38.557Z,7.60
2022-12-03T03:53:30.418Z,7.70
2022-12-03T03:54:23.040Z,9.20
2022-12-03T03:55:14.602Z,6.20
2022-12-03T03:56:06.483Z,7.80
2022-12-03T03:56:58.026Z,10.40
2022-12-03T03:57:49.599Z,7.30
2022-12-03T03:58:40.878Z,8.20
2022-12-03T03:59:32.428Z,8.50
2022-12-03T04:00:23.808Z,7.90
2022-12-03T04:01:15.412Z,7.90
2022-12-03T04:02:06.863Z,7.60
2022-12-03T04:02:58.157Z,9.20
2022-12-03T04:03:49.578Z,8.90
2022-12-03T04:04:41.192Z,10.00
2022-12-03T04:05:32.258Z,8.70
2022-12-03T04:06:23.534Z,8.10
2022-12-03T04:07:15.844Z,7.80
2022-12-03T04:08:07.468Z,8.10
2022-12-03T04:08:58.923Z,10.10
2022-12-03T04:09:50.310Z,8.10
2022-12-03T04:11:00.564Z,7.10
2022-12-03T04:12:10.522Z,7.70
2022-12-03T04:13:02.005Z,8.10
2022-12-03T04:14:44.943Z,6.50
2022-12-03T04:15:36.652Z,7.90
2022-12-03T04:16:28.342Z,8.20
2022-12-03T04:17:19.647Z,8.40
2022-12-03T04:18:29.607Z,7.60
2022-12-03T04:19:21.159Z,9.30
2022-12-03T04:20:12.776Z,9.60
2022-12-03T04:21:22.709Z,8.90
2022-12-03T04:22:32.678Z,6.80
2022-12-03T04:23:30.628Z,7.20
2022-12-03T04:24:22.389Z,10.20
2022-12-03T04:25:32.734Z,8.20
2022-12-03T04:26:43.131Z,7.90
2022-12-03T04:27:53.339Z,9.10
2022-12-03T04:28:51.024Z,8.30
2022-12-03T04:29:42.620Z,7.70
2022-12-03T04:30:34.009Z,7.20
2022-12-03T04:31:44.019Z,8.70
2022-12-03T04:32:54.158Z,7.70
2022-12-03T04:34:04.746Z,7.70
2022-12-03T04:35:15.390Z,8.50
2022-12-03T04:36:06.840Z,7.90
2022-12-03T04:36:58.280Z,7.40
2022-12-03T04:37:49.513Z,8.40
2022-12-03T04:38:40.718Z,7.30
2022-12-03T04:39:32.292Z,8.70
2022-12-03T04:40:42.287Z,6.70
2022-12-03T04:41:33.574Z,8.00
2022-12-03T04:42:24.866Z,6.70
2022-12-03T04:43:16.138Z,8.40
2022-12-03T04:44:25.838Z,8.30
2022-12-03T04:45:17.306Z,9.30
2022-12-03T04:46:08.981Z,8.10
2022-12-03T04:47:00.630Z,8.50
2022-12-03T04:47:52.065Z,8.50
2022-12-03T04:48:43.248Z,10.80
2022-12-03T04:49:38.499Z,8.60
2022-12-03T04:50:29.987Z,8.20
2022-12-03T04:51:21.457Z,7.70
2022-12-03T04:52:13.837Z,8.10
2022-12-03T04:53:05.561Z,8.20
2022-12-03T04:53:56.881Z,7.60
2022-12-03T04:54:48.575Z,8.90
2022-12-03T04:55:40.069Z,7.10
2022-12-03T04:56:31.538Z,7.60
2022-12-03T04:57:23.191Z,8.50
2022-12-03T04:58:14.526Z,8.40
2022-12-03T04:59:05.568Z,6.10
2022-12-03T04:59:56.833Z,7.70
2022-12-03T05:00:48.039Z,8.40
2022-12-03T05:01:39.542Z,8.80
2022-12-03T05:02:30.826Z,6.40
2022-12-03T05:03:22.053Z,6.90
2022-12-03T05:04:13.573Z,6.50
2022-12-03T05:05:05.109Z,7.80
2022-12-03T05:06:47.983Z,7.60
2022-12-03T05:07:39.350Z,7.10
2022-12-03T05:08:30.767Z,6.80
2022-12-03T05:09:22.016Z,5.90
2022-12-03T05:10:13.246Z,7.00
2022-12-03T05:11:05.118Z,6.70
2022-12-03T05:11:56.999Z,6.80
2022-12-03T05:12:47.988Z,7.10
2022-12-03T05:13:39.362Z,7.40
2022-12-03T05:14:30.999Z,7.70
2022-12-03T05:15:22.259Z,8.30
2022-12-03T05:16:13.819Z,7.20
2022-12-03T05:17:05.149Z,7.10
2022-12-03T05:17:56.574Z,6.90
2022-12-03T05:18:48.352Z,7.00
2022-12-03T05:19:58.549Z,7.60
2022-12-03T05:20:53.303Z,7.30
2022-12-03T05:21:45.185Z,7.10
2022-12-03T05:22:36.667Z,7.20
2022-12-03T05:23:28.129Z,7.30
2022-12-03T05:24:19.490Z,8.20
2022-12-03T05:25:11.117Z,8.30
2022-12-03T05:26:02.399Z,8.40
2022-12-03T05:26:54.015Z,7.40
2022-12-03T05:27:45.397Z,8.90
2022-12-03T05:28:37.029Z,8.80
2022-12-03T05:29:28.316Z,8.20
2022-12-03T05:30:19.626Z,7.20
2022-12-03T05:31:11.253Z,9.00
2022-12-03T05:32:02.734Z,8.30
2022-12-03T05:32:54.423Z,7.60
2022-12-03T05:33:46.383Z,7.60
2022-12-03T05:34:38.054Z,8.80
2022-12-03T05:35:29.658Z,8.00
2022-12-03T05:36:20.927Z,8.00
2022-12-03T05:37:12.282Z,9.70
2022-12-03T05:38:03.677Z,7.50
2022-12-03T05:39:46.837Z,8.40
2022-12-03T05:40:38.313Z,9.00
2022-12-03T05:41:48.921Z,9.50
2022-12-03T05:42:57.026Z,8.00
2022-12-03T05:43:48.154Z,8.20
2022-12-03T05:44:39.524Z,9.50
2022-12-03T05:45:32.790Z,8.70
2022-12-03T05:46:24.368Z,8.30
2022-12-03T05:47:16.232Z,8.10
2022-12-03T05:48:09.134Z,9.80
2022-12-03T05:49:00.359Z,9.10
2022-12-03T05:49:51.937Z,8.30
2022-12-03T05:50:44.579Z,9.40
2022-12-03T05:51:38.940Z,7.90
2022-12-03T05:52:30.337Z,8.10
2022-12-03T05:53:21.859Z,9.00
2022-12-03T05:54:13.075Z,9.20
2022-12-03T05:55:04.843Z,9.20
2022-12-03T05:55:56.537Z,9.30
2022-12-03T05:56:47.817Z,8.00
2022-12-03T05:57:39.086Z,8.80
2022-12-03T05:58:30.530Z,8.80
2022-12-03T05:59:21.835Z,9.40
2022-12-03T06:00:14.706Z,8.20
2022-12-03T06:01:06.081Z,9.20
2022-12-03T06:01:57.353Z,8.80
2022-12-03T06:02:49.188Z,8.10
2022-12-03T06:03:40.899Z,9.80
2022-12-03T06:04:32.238Z,9.70
2022-12-03T06:05:24.039Z,8.30
2022-12-03T06:06:15.281Z,9.00
2022-12-03T06:07:09.731Z,7.90
2022-12-03T06:08:05.176Z,8.10
2022-12-03T06:08:56.463Z,8.00
2022-12-03T06:09:47.914Z,9.20
2022-12-03T06:10:39.413Z,8.20
2022-12-03T06:11:33.975Z,8.90
2022-12-03T06:12:25.358Z,9.20
2022-12-03T06:13:17.390Z,8.50
2022-12-03T06:15:00.222Z,9.00
2022-12-03T06:15:52.845Z,8.40
2022-12-03T06:16:44.288Z,9.20
2022-12-03T06:17:35.895Z,9.60
2022-12-03T06:18:27.266Z,9.10
2022-12-03T06:19:18.791Z,8.40
2022-12-03T06:20:14.387Z,9.10
2022-12-03T06:21:05.763Z,8.30
2022-12-03T06:21:57.016Z,8.50
2022-12-03T06:22:49.463Z,8.30
2022-12-03T06:23:44.807Z,9.20
2022-12-03T06:24:36.589Z,9.30
2022-12-03T06:25:28.417Z,8.70
2022-12-03T06:26:20.154Z,8.40
2022-12-03T06:28:03.056Z,8.90
2022-12-03T06:28:54.931Z,9.40
2022-12-03T06:29:46.642Z,8.90
2022-12-03T06:30:38.125Z,8.70
2022-12-03T06:31:29.963Z,8.50
2022-12-03T06:32:21.154Z,7.70
2022-12-03T06:33:12.858Z,7.60
2022-12-03T06:34:04.594Z,8.40
2022-12-03T06:35:47.887Z,7.80
2022-12-03T06:36:39.170Z,8.40
2022-12-03T06:37:30.573Z,7.30
2022-12-03T06:38:22.365Z,7.40
2022-12-03T06:39:13.659Z,9.20
2022-12-03T06:40:05.699Z,7.60
2022-12-03T06:40:57.228Z,8.60
2022-12-03T06:41:48.482Z,8.00
2022-12-03T06:42:40.131Z,7.50
2022-12-03T06:43:31.255Z,7.70
2022-12-03T06:44:22.803Z,9.00
2022-12-03T06:45:14.224Z,9.50
2022-12-03T06:46:05.834Z,10.10
2022-12-03T06:46:57.497Z,8.00
2022-12-03T06:47:49.032Z,8.40
2022-12-03T06:48:40.448Z,10.80
2022-12-03T06:49:32.007Z,10.60
2022-12-03T06:50:23.601Z,8.80
2022-12-03T06:51:14.827Z,8.90
2022-12-03T06:52:06.245Z,8.90
2022-12-03T06:53:49.617Z,8.10
2022-12-03T06:54:41.059Z,8.20
2022-12-03T06:55:32.646Z,9.00
2022-12-03T06:56:23.647Z,9.10
2022-12-03T06:57:16.256Z,7.60
2022-12-03T06:58:07.445Z,16.20
2022-12-03T06:58:59.556Z,9.90
2022-12-03T06:59:51.432Z,9.70
2022-12-03T07:01:34.340Z,9.40
2022-12-03T07:02:25.645Z,8.70
2022-12-03T07:03:17.394Z,9.30
2022-12-03T07:04:08.783Z,9.30
2022-12-03T07:05:00.073Z,9.10
2022-12-03T07:05:51.787Z,9.50
2022-12-03T07:06:43.690Z,8.40
2022-12-03T07:07:35.345Z,10.10
2022-12-03T07:08:27.283Z,11.10
2022-12-03T07:09:18.875Z,9.30
2022-12-03T07:10:10.331Z,7.90
2022-12-03T07:11:01.751Z,9.90
2022-12-03T07:11:53.061Z,9.40
2022-12-03T07:12:44.275Z,8.80
2022-12-03T07:13:35.750Z,9.30
2022-12-03T07:14:27.350Z,9.80
2022-12-03T07:15:19.001Z,8.50
2022-12-03T07:16:10.544Z,10.20
2022-12-03T07:17:01.772Z,9.50
2022-12-03T07:17:53.374Z,11.80
2022-12-03T07:18:44.971Z,11.00
2022-12-03T07:19:36.580Z,11.40
2022-12-03T07:20:28.272Z,11.10
2022-12-03T07:21:19.850Z,10.80
2022-12-03T07:22:11.457Z,9.20
2022-12-03T07:23:03.070Z,10.40
2022-12-03T07:23:54.328Z,10.70
2022-12-03T07:24:45.786Z,10.20
2022-12-03T07:25:37.231Z,9.50
2022-12-03T07:26:28.517Z,9.80
2022-12-03T07:27:20.137Z,10.40
2022-12-03T07:28:11.711Z,9.70
2022-12-03T07:29:54.932Z,9.30
2022-12-03T07:30:46.492Z,8.20
2022-12-03T07:31:37.861Z,9.40
2022-12-03T07:32:29.439Z,11.00
2022-12-03T07:33:20.827Z,9.90
2022-12-03T07:34:11.897Z,11.30
2022-12-03T07:35:58.740Z,9.80
2022-12-03T07:36:50.305Z,9.90
2022-12-03T07:37:41.508Z,10.10
2022-12-03T07:38:32.906Z,9.80
2022-12-03T07:39:24.219Z,11.50
2022-12-03T07:40:15.928Z,9.10
2022-12-03T07:41:59.803Z,10.10
2022-12-03T07:42:51.435Z,8.90
2022-12-03T07:43:43.707Z,10.40
2022-12-03T07:44:34.977Z,10.70
2022-12-03T07:45:26.320Z,8.70
2022-12-03T07:46:17.738Z,10.20
2022-12-03T07:47:09.249Z,10.20
2022-12-03T07:48:00.576Z,11.20
2022-12-03T07:48:52.246Z,9.50
2022-12-03T07:49:43.881Z,9.90
2022-12-03T07:50:35.146Z,10.30
2022-12-03T07:51:31.945Z,10.00
2022-12-03T07:52:23.590Z,11.70
2022-12-03T07:53:15.149Z,11.70
2022-12-03T07:54:06.491Z,11.70
2022-12-03T07:54:57.890Z,11.40
2022-12-03T07:55:49.174Z,10.10
2022-12-03T07:56:40.836Z,11.20
2022-12-03T07:57:32.527Z,8.90
2022-12-03T07:58:23.949Z,10.40
2022-12-03T07:59:16.634Z,11.20
2022-12-03T08:00:08.090Z,10.70
2022-12-03T08:00:59.958Z,10.70
2022-12-03T08:01:51.509Z,11.30
2022-12-03T08:02:43.115Z,9.00
2022-12-03T08:03:34.364Z,11.60
2022-12-03T08:04:26.061Z,11.80
2022-12-03T08:05:17.737Z,9.20
2022-12-03T08:06:09.557Z,10.60
2022-12-03T08:07:01.123Z,12.60
2022-12-03T08:07:52.569Z,9.30
2022-12-03T08:08:43.916Z,10.00
2022-12-03T08:09:35.224Z,10.70
2022-12-03T08:10:26.926Z,9.70
2022-12-03T08:11:18.343Z,10.10
2022-12-03T08:12:15.384Z,10.70
2022-12-03T08:13:10.595Z,16.00
2022-12-03T08:14:02.016Z,18.30
2022-12-03T08:14:53.538Z,15.10
2022-12-03T08:15:45.084Z,15.10
2022-12-03T08:16:37.795Z,10.70
2022-12-03T08:17:29.555Z,10.00
2022-12-03T08:18:21.331Z,9.70
2022-12-03T08:20:06.128Z,10.40
2022-12-03T08:20:57.418Z,10.70
2022-12-03T08:21:48.878Z,9.70
2022-12-03T08:22:41.043Z,11.50
2022-12-03T08:23:34.550Z,10.60
2022-12-03T08:24:25.976Z,9.90
2022-12-03T08:25:22.173Z,11.00
2022-12-03T08:26:16.490Z,11.10
2022-12-03T08:27:14.854Z,9.00
2022-12-03T08:28:57.570Z,11.00
2022-12-03T08:29:48.805Z,9.60
2022-12-03T08:30:40.643Z,12.30
2022-12-03T08:31:33.707Z,10.40
2022-12-03T08:32:25.274Z,10.90
2022-12-03T08:33:18.605Z,10.80
2022-12-03T08:34:20.326Z,9.90
2022-12-03T08:35:19.972Z,11.40
2022-12-03T08:36:16.939Z,9.80
2022-12-03T08:37:18.505Z,10.30
2022-12-03T08:38:11.891Z,11.90
2022-12-03T08:39:23.448Z,11.60
2022-12-03T08:40:35.364Z,10.00
2022-12-03T08:41:48.575Z,11.20
2022-12-03T08:42:43.220Z,13.00
2022-12-03T08:43:41.918Z,12.40
2022-12-03T08:44:38.538Z,10.90
2022-12-03T08:45:32.670Z,10.60
2022-12-03T08:46:24.366Z,11.50
2022-12-03T08:47:25.343Z,10.90
2022-12-03T08:48:22.882Z,9.70
2022-12-03T08:49:15.025Z,9.70
2022-12-03T08:50:22.143Z,12.60
2022-12-03T08:51:26.653Z,11.00
2022-12-03T08:52:22.712Z,10.50
2022-12-03T08:53:14.424Z,12.20
2022-12-03T08:54:13.060Z,13.00
2022-12-03T08:55:24.639Z,10.60
2022-12-03T08:56:24.099Z,10.60
2022-12-03T08:57:26.728Z,11.50
2022-12-03T08:58:27.558Z,10.20
2022-12-03T08:59:28.497Z,10.00
2022-12-03T09:00:22.281Z,11.20
2022-12-03T09:01:13.795Z,10.30
2022-12-03T09:02:15.090Z,11.50
2022-12-03T09:03:12.870Z,12.60
2022-12-03T09:04:23.041Z,10.90
2022-12-03T09:05:33.397Z,12.60
2022-12-03T09:06:24.838Z,12.50
2022-12-03T09:07:16.146Z,11.20
2022-12-03T09:08:07.984Z,11.30
2022-12-03T09:09:05.148Z,12.20
2022-12-03T09:09:58.246Z,12.20
2022-12-03T09:10:49.591Z,12.00
2022-12-03T09:11:43.129Z,13.00
2022-12-03T09:12:34.494Z,11.60
2022-12-03T09:13:25.829Z,13.50
2022-12-03T09:14:22.511Z,12.20
2022-12-03T09:15:14.032Z,11.80
2022-12-03T09:16:05.731Z,29.10
2022-12-03T09:17:49.001Z,12.70
2022-12-03T09:18:40.383Z,12.30
2022-12-03T09:19:31.730Z,11.40
2022-12-03T09:20:23.334Z,11.90
2022-12-03T09:21:14.698Z,10.50
2022-12-03T09:22:06.108Z,12.00
2022-12-03T09:22:57.762Z,11.90
2022-12-03T09:23:49.205Z,11.50
2022-12-03T09:24:40.643Z,11.60
2022-12-03T09:25:32.252Z,11.90
2022-12-03T09:26:23.795Z,12.40
2022-12-03T09:27:15.487Z,11.90
2022-12-03T09:28:07.154Z,12.90
2022-12-03T09:28:58.191Z,11.00
2022-12-03T09:29:49.858Z,12.10
2022-12-03T09:31:34.347Z,13.10
2022-12-03T09:32:25.915Z,12.50
2022-12-03T09:33:17.827Z,12.10
2022-12-03T09:34:09.306Z,12.00
2022-12-03T09:35:01.433Z,11.90
2022-12-03T09:36:44.397Z,8.80
2022-12-03T09:37:35.737Z,10.50
2022-12-03T09:38:27.016Z,13.70
2022-12-03T09:39:18.340Z,11.00
2022-12-03T09:40:10.314Z,15.10
2022-12-03T09:41:01.911Z,13.40
2022-12-03T09:41:54.495Z,12.40
2022-12-03T09:42:45.797Z,11.90
2022-12-03T09:44:02.791Z,12.60
2022-12-03T09:44:48.806Z,14.10
2022-12-03T09:45:40.285Z,12.30
2022-12-03T09:46:31.715Z,13.40
2022-12-03T09:48:15.987Z,12.60
2022-12-03T09:49:13.967Z,12.00
2022-12-03T09:50:07.517Z,12.20
2022-12-03T09:53:35.562Z,12.10
2022-12-03T09:54:29.880Z,13.20
2022-12-03T09:56:15.831Z,12.40
2022-12-03T09:57:10.603Z,10.00
2022-12-03T09:58:02.343Z,13.10
2022-12-03T09:58:54.597Z,13.90
2022-12-03T09:59:45.831Z,12.70
2022-12-03T10:00:37.826Z,12.50
2022-12-03T10:01:30.846Z,12.60
2022-12-03T10:02:25.141Z,13.00
2022-12-03T10:03:18.880Z,11.10
2022-12-03T10:04:10.689Z,12.90
2022-12-03T10:05:02.456Z,13.20
2022-12-03T10:05:54.990Z,13.80
2022-12-03T10:06:46.823Z,14.80
2022-12-03T10:07:38.643Z,9.70
2022-12-03T10:08:32.344Z,12.70
2022-12-03T10:09:25.606Z,12.00
2022-12-03T10:10:18.768Z,13.10
2022-12-03T10:11:10.349Z,13.60
2022-12-03T10:12:02.021Z,15.40
2022-12-03T10:12:53.382Z,24.20
2022-12-03T10:13:45.899Z,16.50
2022-12-03T10:14:37.325Z,12.90
2022-12-03T10:15:28.715Z,12.70
2022-12-03T10:16:21.299Z,12.80
2022-12-03T10:17:12.588Z,13.70
2022-12-03T10:18:15.909Z,12.00
2022-12-03T10:19:11.468Z,13.90
2022-12-03T10:20:02.773Z,12.20
2022-12-03T10:20:54.296Z,13.10
2022-12-03T10:21:45.703Z,12.20
2022-12-03T10:22:37.477Z,13.20
2022-12-03T10:24:22.244Z,11.80
2022-12-03T10:25:14.956Z,11.80
2022-12-03T10:26:06.460Z,11.90
2022-12-03T10:27:02.095Z,12.70
2022-12-03T10:27:58.760Z,13.00
2022-12-03T10:28:51.348Z,11.20
2022-12-03T10:29:53.102Z,12.70
2022-12-03T10:30:53.766Z,10.20
2022-12-03T10:31:45.879Z,13.40
2022-12-03T10:33:30.221Z,12.10
2022-12-03T10:34:24.060Z,13.60
2022-12-03T10:35:18.415Z,13.10
2022-12-03T10:36:19.213Z,9.50
2022-12-03T10:37:13.592Z,11.70
2022-12-03T10:38:06.312Z,11.10
2022-12-03T10:39:14.453Z,14.40
2022-12-03T10:40:09.056Z,12.30
2022-12-03T10:41:19.357Z,12.30
2022-12-03T10:42:16.078Z,12.30
2022-12-03T10:43:13.520Z,13.30
2022-12-03T10:44:21.152Z,13.00
2022-12-03T10:45:20.497Z,13.90
2022-12-03T10:46:13.272Z,12.50
2022-12-03T10:47:06.559Z,14.60
2022-12-03T10:48:02.557Z,13.30
2022-12-03T10:49:10.535Z,14.90
2022-12-03T10:50:04.001Z,12.50
2022-12-03T10:50:56.701Z,16.60
2022-12-03T10:51:48.374Z,14.50
2022-12-03T10:52:39.846Z,13.70
2022-12-03T10:53:32.724Z,12.20
2022-12-03T10:54:25.431Z,13.50
2022-12-03T10:55:17.228Z,12.70
2022-12-03T10:56:14.901Z,13.60
2022-12-03T10:57:06.344Z,16.20
2022-12-03T10:57:57.725Z,13.50
2022-12-03T10:58:49.055Z,13.00
2022-12-03T10:59:42.123Z,13.30
2022-12-03T11:00:34.235Z,13.50
2022-12-03T11:01:26.681Z,14.10
2022-12-03T11:02:21.118Z,15.90
2022-12-03T11:03:26.388Z,15.80
2022-12-03T11:04:22.478Z,11.00
2022-12-03T11:05:15.578Z,12.80
2022-12-03T11:06:06.737Z,15.20
2022-12-03T11:06:58.318Z,14.50
2022-12-03T11:07:50.073Z,14.60
2022-12-03T11:08:43.024Z,14.80
2022-12-03T11:09:35.094Z,15.20
2022-12-03T11:10:26.587Z,15.40
2022-12-03T11:11:20.020Z,16.00
2022-12-03T11:12:19.553Z,14.40
2022-12-03T11:13:27.677Z,15.70
2022-12-03T11:14:38.045Z,14.80
2022-12-03T11:15:43.952Z,14.20
2022-12-03T11:16:41.342Z,12.60
2022-12-03T11:17:45.104Z,13.90
2022-12-03T11:18:36.826Z,14.90
2022-12-03T11:20:22.900Z,15.70
2022-12-03T11:21:14.801Z,15.20
2022-12-03T11:22:06.332Z,15.40
2022-12-03T11:22:58.250Z,15.00
2022-12-03T11:23:49.802Z,14.00
2022-12-03T11:24:41.418Z,14.10
2022-12-03T11:25:37.142Z,13.30
2022-12-03T11:26:28.770Z,15.20
2022-12-03T11:27:20.858Z,15.30
2022-12-03T11:28:15.165Z,14.00
2022-12-03T11:29:13.953Z,14.40
2022-12-03T11:30:08.841Z,13.80
2022-12-03T11:31:02.511Z,15.40
2022-12-03T11:31:53.575Z,16.00
2022-12-03T11:32:45.083Z,12.80
2022-12-03T11:33:38.235Z,16.30
2022-12-03T11:34:31.367Z,13.30
2022-12-03T11:35:24.615Z,14.00
2022-12-03T11:36:16.165Z,14.00
2022-12-03T11:37:10.310Z,15.40
2022-12-03T11:38:20.722Z,13.80
2022-12-03T11:39:12.386Z,14.10
2022-12-03T11:40:24.796Z,13.30
2022-12-03T11:41:18.018Z,13.70
2022-12-03T11:42:31.259Z,15.60
2022-12-03T11:43:42.685Z,13.70
2022-12-03T11:44:34.303Z,13.70
2022-12-03T11:45:30.343Z,14.50
2022-12-03T11:46:23.872Z,12.80
2022-12-03T11:47:16.081Z,14.60
2022-12-03T11:48:12.720Z,15.70
2022-12-03T11:49:18.889Z,15.20
2022-12-03T11:50:39.386Z,14.50
2022-12-03T11:51:31.498Z,13.10
2022-12-03T11:52:25.078Z,13.80
2022-12-03T11:53:16.678Z,13.10
2022-12-03T11:54:14.360Z,14.20
2022-12-03T11:55:24.405Z,16.40
2022-12-03T11:56:20.205Z,15.80
2022-12-03T11:57:24.798Z,14.50
2022-12-03T12:00:00.217Z,11.90
2022-12-03T12:00:52.408Z,15.60
2022-12-03T12:01:44.281Z,14.40
2022-12-03T12:02:37.779Z,15.10
2022-12-03T12:03:33.703Z,14.20
2022-12-03T12:04:46.509Z,14.10
2022-12-03T12:05:38.229Z,13.60
2022-12-03T12:06:39.291Z,15.80
2022-12-03T12:07:34.638Z,15.00
2022-12-03T12:08:25.917Z,14.50
2022-12-03T12:09:37.229Z,13.80
2022-12-03T12:10:44.825Z,24.00
2022-12-03T12:11:37.470Z,19.90
2022-12-03T12:12:28.986Z,15.20
2022-12-03T12:13:35.866Z,14.40